Time;durP1;ratioP1;P1;durP2;ratioP2;P2;SDS_P1;SDS_P2;PMS_P1;PMS_P2;Temp;Humidity;BMP_temperature;BMP_pressure;BME280_temperature;BME280_humidity;BME280_pressure;Samples;Min_cycle;Max_cycle;Signal;HPM_P1;HPM_P2
2024/03/23 13:42:30;;;;;;;2.77;2.03;;;40.70;29.40;;;;;;5056286;27;1536814;-80
2024/03/23 13:44:56;;;;;;;3.87;2.17;;;33.90;34.50;;;;;;5052855;28;20222;-80
2024/03/23 13:47:23;;;;;;;2.90;1.77;;;32.70;35.80;;;;;;5040095;28;20558;-80
2024/03/23 13:49:50;;;;;;;3.03;2.07;;;31.70;37.40;;;;;;5044945;28;20202;-80
2024/03/23 13:52:25;;;;;;;3.10;1.63;;;31.60;39.90;;;;;;5031448;28;20440;-80
2024/03/23 13:54:52;;;;;;;2.10;2.00;;;31.40;38.70;;;;;;5024003;28;20459;-79
2024/03/23 13:57:21;;;;;;;2.90;2.27;;;31.00;38.80;;;;;;5037907;28;20441;-81
2024/03/23 13:59:48;;;;;;;4.50;1.67;;;30.30;39.50;;;;;;5041945;28;20432;-78
2024/03/23 14:02:16;;;;;;;1.97;1.60;;;26.90;32.10;;;;;;5030000;28;20444;-76
2024/03/23 14:04:42;;;;;;;2.23;1.37;;;23.80;35.10;;;;;;5028145;28;20460;-78
2024/03/23 14:07:12;;;;;;;5.53;1.57;;;21.70;37.40;;;;;;5034307;28;20439;-77
2024/03/23 14:10:06;;;;;;;4.23;1.80;;;20.20;39.60;;;;;;5042200;28;20446;-77
2024/03/23 14:13:04;;;;;;;8.07;2.03;;;20.60;41.00;;;;;;5041546;28;20440;-75
2024/03/23 14:15:32;;;;;;;3.63;1.57;;;21.20;38.20;;;;;;5017106;28;20472;-76
2024/03/23 14:18:08;;;;;;;2.87;1.10;;;20.90;37.60;;;;;;5033269;28;20794;-77
2024/03/23 14:24:05;;;;;;;1.53;1.40;;;20.00;36.60;;;;;;5003122;28;20440;-74
2024/03/23 14:26:32;;;;;;;4.30;1.60;;;19.20;38.70;;;;;;5028370;28;20448;-76
2024/03/23 14:28:59;;;;;;;4.60;1.57;;;19.00;38.20;;;;;;5034025;28;20448;-76
2024/03/23 14:31:27;;;;;;;8.37;1.80;;;19.20;40.60;;;;;;5027466;28;20475;-76
2024/03/23 14:33:54;;;;;;;3.57;1.43;;;19.90;37.60;;;;;;5011056;28;20437;-76
2024/03/23 14:36:20;;;;;;;1.97;1.27;;;20.10;38.10;;;;;;5024889;28;20464;-75
2024/03/23 14:38:48;;;;;;;7.00;2.43;;;19.90;37.30;;;;;;5030704;28;20428;-75
2024/03/23 14:41:15;;;;;;;3.30;1.40;;;21.00;36.70;;;;;;5027154;28;20447;-75
2024/03/23 14:43:43;;;;;;;2.80;1.67;;;20.90;35.00;;;;;;5015809;28;20448;-75
2024/03/23 14:46:10;;;;;;;5.77;1.80;;;19.90;35.80;;;;;;5033221;28;20444;-75
2024/03/23 14:48:38;;;;;;;3.67;1.30;;;19.70;37.60;;;;;;5017845;28;20432;-75
2024/03/23 14:51:05;;;;;;;2.50;1.57;;;19.30;36.30;;;;;;5022495;28;20464;-75
2024/03/23 14:53:32;;;;;;;2.07;1.30;;;19.10;37.80;;;;;;5013525;28;20444;-74
2024/03/23 14:55:59;;;;;;;3.07;1.13;;;18.80;37.80;;;;;;5019262;28;20456;-75
2024/03/23 14:58:26;;;;;;;1.97;1.20;;;18.30;39.00;;;;;;5019243;28;20436;-77
2024/03/23 15:00:52;;;;;;;3.83;1.13;;;19.40;41.50;;;;;;5012422;28;20454;-78
2024/03/23 15:03:19;;;;;;;2.70;1.23;;;20.30;40.00;;;;;;5005806;28;20432;-76
2024/03/23 15:05:54;;;;;;;2.87;1.10;;;20.90;39.00;;;;;;5023075;28;20467;-76
2024/03/23 15:08:23;;;;;;;2.27;1.17;;;21.40;38.20;;;;;;5013977;28;20432;-79
2024/03/23 15:10:50;;;;;;;2.47;1.27;;;21.90;37.70;;;;;;5015305;28;20479;-78
2024/03/23 15:13:22;;;;;;;1.33;1.13;;;22.20;37.60;;;;;;5014016;28;20444;-77
2024/03/23 15:15:51;;;;;;;1.40;1.30;;;22.60;37.50;;;;;;5013524;28;20464;-76
2024/03/23 15:18:25;;;;;;;2.70;1.30;;;23.30;37.80;;;;;;5017164;28;20448;-77
2024/03/23 15:20:56;;;;;;;3.60;1.73;;;23.80;37.00;;;;;;5009567;28;20437;-77
2024/03/23 15:23:24;;;;;;;2.80;1.47;;;25.00;36.90;;;;;;5013983;28;20441;-77
2024/03/23 15:25:54;;;;;;;2.37;1.30;;;26.00;35.40;;;;;;5014242;28;20465;-75
2024/03/23 15:28:21;;;;;;;5.20;1.27;;;26.90;34.00;;;;;;5013847;28;20440;-77
2024/03/23 15:30:47;;;;;;;2.77;1.20;;;26.70;32.30;;;;;;5013564;28;20458;-77
2024/03/23 15:33:14;;;;;;;4.43;1.50;;;26.10;32.90;;;;;;5014790;28;20460;-76
2024/03/23 15:35:41;;;;;;;3.17;1.20;;;25.60;33.90;;;;;;5013180;28;20435;-77
2024/03/23 15:38:10;;;;;;;2.83;1.43;;;25.10;34.70;;;;;;5013158;28;20452;-75
2024/03/23 15:40:36;;;;;;;2.87;1.40;;;24.70;35.20;;;;;;5015338;28;20431;-75
2024/03/23 15:43:03;;;;;;;4.40;1.60;;;24.40;36.00;;;;;;5012416;28;20423;-76
2024/03/23 15:45:29;;;;;;;2.03;1.33;;;24.10;36.60;;;;;;5015032;28;20443;-76
2024/03/23 15:47:56;;;;;;;1.43;1.10;;;23.70;37.10;;;;;;5017277;28;20519;-76
2024/03/23 15:50:22;;;;;;;1.87;1.10;;;23.50;37.70;;;;;;5009737;28;20452;-76
2024/03/23 15:52:50;;;;;;;2.40;1.60;;;23.40;38.50;;;;;;5010313;28;20521;-76
2024/03/23 15:55:17;;;;;;;2.90;1.63;;;23.20;38.70;;;;;;4999041;28;20456;-76
2024/03/23 15:57:44;;;;;;;2.33;1.10;;;23.10;39.10;;;;;;5009300;28;20436;-75
2024/03/23 16:00:11;;;;;;;1.63;1.20;;;23.10;39.60;;;;;;5021278;28;20440;-76
2024/03/23 16:02:38;;;;;;;1.60;1.30;;;23.20;39.80;;;;;;5014848;28;20436;-75
2024/03/23 16:05:07;;;;;;;1.73;1.30;;;23.10;39.60;;;;;;5012842;28;20475;-76
2024/03/23 16:07:35;;;;;;;1.73;1.30;;;23.00;39.80;;;;;;5012453;28;20415;-75
2024/03/23 16:10:05;;;;;;;3.47;1.50;;;22.90;40.20;;;;;;5016259;28;20447;-76
2024/03/23 16:12:34;;;;;;;1.67;1.10;;;22.80;40.60;;;;;;5018994;28;20475;-75
2024/03/23 16:15:00;;;;;;;1.17;1.00;;;22.80;40.80;;;;;;5013266;28;20468;-77
2024/03/23 16:17:27;;;;;;;4.17;1.80;;;22.80;40.80;;;;;;5017265;28;20509;-76
2024/03/23 16:19:53;;;;;;;1.77;1.23;;;22.80;41.20;;;;;;5028059;28;20947;-75
2024/03/23 16:22:20;;;;;;;4.23;1.53;;;22.80;41.30;;;;;;5012919;28;20435;-77
2024/03/23 16:24:47;;;;;;;1.43;1.30;;;22.70;41.30;;;;;;5016054;28;20438;-78
2024/03/23 16:27:14;;;;;;;1.67;1.10;;;22.60;41.60;;;;;;5013192;28;20507;-77
2024/03/23 16:29:44;;;;;;;3.03;1.30;;;22.60;41.70;;;;;;5012627;28;20440;-77
2024/03/23 16:32:11;;;;;;;2.00;1.20;;;22.50;42.00;;;;;;5023456;28;20469;-76
2024/03/23 16:34:38;;;;;;;3.00;1.30;;;22.50;42.00;;;;;;5010047;28;20475;-77
2024/03/23 16:37:06;;;;;;;2.50;1.43;;;22.40;42.10;;;;;;5014484;28;20447;-78
2024/03/23 16:39:32;;;;;;;1.83;1.33;;;22.30;42.50;;;;;;5016578;28;20452;-78
2024/03/23 16:41:59;;;;;;;2.80;1.30;;;22.20;42.60;;;;;;5010518;28;20456;-77
2024/03/23 16:44:25;;;;;;;1.53;1.17;;;22.10;42.70;;;;;;5020967;28;20462;-77
2024/03/23 16:46:53;;;;;;;1.63;1.20;;;22.00;42.90;;;;;;5019165;28;20440;-78
2024/03/23 16:49:19;;;;;;;3.50;1.10;;;22.00;43.10;;;;;;5032861;28;20232;-77
2024/03/23 16:51:46;;;;;;;4.37;1.70;;;21.90;43.30;;;;;;5033411;28;20460;-78
2024/03/23 16:54:13;;;;;;;1.80;1.20;;;21.80;43.50;;;;;;5019074;28;20460;-78
2024/03/23 16:56:40;;;;;;;1.30;1.17;;;21.70;43.70;;;;;;5013503;28;20510;-77
2024/03/23 16:59:06;;;;;;;1.73;1.20;;;21.70;43.80;;;;;;5007551;28;20887;-79
2024/03/23 17:01:33;;;;;;;2.00;1.20;;;21.60;44.00;;;;;;5001131;28;20437;-79
2024/03/23 17:04:00;;;;;;;3.30;1.50;;;21.60;44.30;;;;;;5018635;28;20445;-80
2024/03/23 17:06:27;;;;;;;2.70;1.30;;;21.50;44.10;;;;;;5011546;28;20436;-79
2024/03/23 17:08:54;;;;;;;1.90;1.17;;;21.40;44.50;;;;;;5012714;28;20448;-80
2024/03/23 17:11:24;;;;;;;4.57;1.50;;;21.40;44.60;;;;;;5012620;28;20468;-79
2024/03/23 17:13:53;;;;;;;3.13;1.80;;;21.30;44.80;;;;;;5013683;28;20436;-79
2024/03/23 17:16:21;;;;;;;2.93;1.70;;;21.30;45.00;;;;;;5014054;28;20444;-77
2024/03/23 17:18:53;;;;;;;3.97;1.57;;;21.20;44.80;;;;;;5014960;28;20903;-79
2024/03/23 17:21:35;;;;;;;4.80;1.47;;;21.20;45.00;;;;;;5014826;28;20436;-80
2024/03/23 17:24:02;;;;;;;1.53;1.10;;;21.10;45.10;;;;;;5012142;28;20448;-78
2024/03/23 17:26:29;;;;;;;2.13;1.37;;;21.10;45.20;;;;;;5011611;28;20440;-79
2024/03/23 17:29:01;;;;;;;6.70;1.30;;;21.00;45.30;;;;;;5012868;28;20441;-78
2024/03/23 17:31:45;;;;;;;2.53;1.30;;;21.00;45.50;;;;;;5013491;28;20476;-78
2024/03/23 17:34:13;;;;;;;3.77;1.60;;;20.90;45.70;;;;;;5012871;28;20457;-78
2024/03/23 17:36:41;;;;;;;5.40;2.03;;;20.90;45.80;;;;;;5011655;28;20440;-78
2024/03/23 17:39:09;;;;;;;6.40;1.37;;;20.80;45.70;;;;;;5010041;28;20447;-78
2024/03/23 17:41:44;;;;;;;7.43;1.53;;;20.80;46.00;;;;;;5011367;28;20440;-79
2024/03/23 17:44:16;;;;;;;2.00;1.37;;;20.70;46.10;;;;;;5012089;28;20463;-78
2024/03/23 17:46:46;;;;;;;3.40;1.50;;;20.70;46.20;;;;;;5011732;28;20444;-79
2024/03/23 17:49:15;;;;;;;2.40;1.43;;;20.60;46.30;;;;;;5011211;28;20436;-77
2024/03/23 17:51:57;;;;;;;8.93;1.90;;;20.50;46.30;;;;;;5012967;28;20492;-80
2024/03/23 17:54:24;;;;;;;1.73;1.47;;;20.50;46.40;;;;;;5013807;28;20460;-80
2024/03/23 17:56:50;;;;;;;4.90;1.50;;;20.40;46.40;;;;;;5013388;28;20432;-79
2024/03/23 17:59:18;;;;;;;3.20;1.30;;;20.40;46.60;;;;;;5012472;28;20432;-79
2024/03/23 18:01:44;;;;;;;5.30;1.30;;;20.30;46.40;;;;;;5012189;28;20440;-79
2024/03/23 18:04:13;;;;;;;4.13;1.90;;;20.30;46.60;;;;;;5011619;28;20457;-78
2024/03/23 18:06:39;;;;;;;3.60;1.20;;;20.20;46.70;;;;;;5011283;28;20448;-79
2024/03/23 18:09:10;;;;;;;1.90;1.37;;;20.20;46.90;;;;;;5011023;28;20443;-78
2024/03/23 18:11:36;;;;;;;2.27;1.43;;;20.10;46.80;;;;;;5010882;28;20468;-78
2024/03/23 18:14:03;;;;;;;2.00;1.30;;;20.10;47.10;;;;;;5010687;28;20441;-78
2024/03/23 18:16:29;;;;;;;2.70;1.40;;;20.00;47.10;;;;;;5010479;28;20445;-78
2024/03/23 18:18:56;;;;;;;2.60;1.40;;;20.00;46.90;;;;;;5014652;28;20436;-78
2024/03/23 18:21:23;;;;;;;3.90;1.70;;;19.90;47.20;;;;;;5014906;28;20444;-79
2024/03/23 18:23:50;;;;;;;3.80;1.50;;;19.90;47.20;;;;;;5015113;28;20436;-78
2024/03/23 18:26:17;;;;;;;2.73;1.50;;;19.80;47.30;;;;;;5015822;28;20445;-80
2024/03/23 18:28:51;;;;;;;1.30;1.20;;;19.80;47.30;;;;;;5015280;28;20440;-78
2024/03/23 18:31:17;;;;;;;1.70;1.13;;;19.80;47.40;;;;;;5014388;28;20512;-78
2024/03/23 18:33:45;;;;;;;2.90;1.30;;;19.70;47.50;;;;;;5014264;28;20822;-78
2024/03/23 18:36:11;;;;;;;5.33;1.70;;;19.70;47.60;;;;;;5014143;28;20449;-78
2024/03/23 18:38:40;;;;;;;3.63;1.40;;;19.60;47.50;;;;;;5014253;28;20448;-78
2024/03/23 18:41:06;;;;;;;3.10;1.60;;;19.60;47.60;;;;;;5013451;28;20467;-79
2024/03/23 18:43:35;;;;;;;3.57;1.10;;;19.60;47.80;;;;;;5015606;28;20436;-80
2024/03/23 18:46:06;;;;;;;3.70;1.50;;;19.50;47.70;;;;;;5015659;28;20457;-77
2024/03/23 18:48:33;;;;;;;3.80;1.67;;;19.50;47.90;;;;;;5014232;28;20434;-79
2024/03/23 18:51:02;;;;;;;8.03;1.43;;;19.50;47.90;;;;;;5014100;28;20441;-78
2024/03/23 18:53:29;;;;;;;2.03;1.40;;;19.40;48.00;;;;;;5014821;28;20498;-79
2024/03/23 18:55:56;;;;;;;2.10;1.20;;;19.40;48.10;;;;;;5014830;28;20460;-78
2024/03/23 18:58:23;;;;;;;2.60;1.50;;;19.40;48.20;;;;;;5014249;28;20436;-78
2024/03/23 19:00:56;;;;;;;3.63;1.40;;;19.30;48.10;;;;;;5013981;28;20444;-79
2024/03/23 19:03:23;;;;;;;5.20;1.77;;;19.20;48.00;;;;;;5013919;28;20437;-79
2024/03/23 19:05:53;;;;;;;2.87;1.50;;;19.20;48.10;;;;;;5013661;28;20967;-78
2024/03/23 19:08:20;;;;;;;1.73;1.17;;;19.20;48.00;;;;;;5013944;28;20437;-77
2024/03/23 19:10:53;;;;;;;3.10;1.50;;;19.10;48.10;;;;;;5013866;28;20502;-77
2024/03/23 19:13:20;;;;;;;3.77;1.33;;;19.10;48.10;;;;;;5013111;28;20436;-77
2024/03/23 19:15:47;;;;;;;3.50;1.20;;;19.10;48.40;;;;;;5013059;28;20530;-78
2024/03/23 19:18:16;;;;;;;4.20;1.70;;;19.00;48.10;;;;;;5013606;28;20448;-77
2024/03/23 19:20:42;;;;;;;3.00;1.60;;;19.00;48.40;;;;;;5013271;28;20423;-77
2024/03/23 19:23:10;;;;;;;2.67;1.43;;;19.00;48.40;;;;;;5013685;28;20444;-78
2024/03/23 19:25:37;;;;;;;2.60;1.67;;;19.00;48.50;;;;;;5013121;28;20460;-79
2024/03/23 19:28:05;;;;;;;3.70;2.10;;;18.90;48.20;;;;;;5013302;28;20444;-78
2024/03/23 19:30:31;;;;;;;3.27;1.53;;;18.80;48.40;;;;;;5013202;28;20448;-78
2024/03/23 19:32:59;;;;;;;1.83;1.53;;;18.80;48.40;;;;;;5012999;28;20476;-78
2024/03/23 19:35:27;;;;;;;2.30;1.70;;;18.80;48.50;;;;;;5013166;28;20453;-77
2024/03/23 19:37:54;;;;;;;3.53;1.53;;;18.80;48.50;;;;;;5013293;28;20444;-80
2024/03/23 19:40:23;;;;;;;3.20;1.60;;;18.70;48.40;;;;;;5013986;28;20436;-77
2024/03/23 19:42:52;;;;;;;2.60;1.50;;;18.70;48.70;;;;;;5011639;28;20460;-78
2024/03/23 19:45:19;;;;;;;1.87;1.10;;;18.70;48.70;;;;;;5014120;28;20456;-79
2024/03/23 19:47:46;;;;;;;2.60;1.40;;;18.60;48.70;;;;;;5013756;28;20452;-79
2024/03/23 19:50:13;;;;;;;2.97;1.63;;;18.60;48.70;;;;;;5014037;28;20456;-77
2024/03/23 19:52:42;;;;;;;2.97;1.50;;;18.60;48.90;;;;;;5012859;28;20490;-78
2024/03/23 19:55:09;;;;;;;1.80;1.50;;;18.60;49.00;;;;;;5012645;28;20460;-79
2024/03/23 19:57:39;;;;;;;1.60;1.37;;;18.50;48.80;;;;;;5013189;28;20441;-78
2024/03/23 20:00:07;;;;;;;3.10;1.30;;;18.50;49.00;;;;;;5013221;28;20449;-79
2024/03/23 20:02:37;;;;;;;1.40;1.03;;;18.50;49.00;;;;;;5012787;28;20499;-78
2024/03/23 20:05:04;;;;;;;2.90;1.40;;;18.40;48.90;;;;;;5012412;28;20460;-77
2024/03/23 20:07:32;;;;;;;3.03;1.67;;;18.40;49.00;;;;;;5012371;28;20449;-79
2024/03/23 20:10:00;;;;;;;2.20;1.40;;;18.40;49.00;;;;;;5012659;28;20818;-78
2024/03/23 20:12:28;;;;;;;2.80;1.57;;;18.40;49.00;;;;;;5012727;28;20986;-79
2024/03/23 20:14:57;;;;;;;2.40;1.50;;;18.30;48.80;;;;;;5013498;28;20460;-78
2024/03/23 20:17:26;;;;;;;4.80;1.40;;;18.20;49.00;;;;;;5012578;28;20452;-78
2024/03/23 20:19:53;;;;;;;2.10;1.17;;;18.20;49.00;;;;;;5012705;28;20509;-77
2024/03/23 20:22:20;;;;;;;3.30;1.80;;;18.20;48.90;;;;;;5013334;28;20475;-79
2024/03/23 20:24:47;;;;;;;1.73;1.30;;;18.20;48.70;;;;;;5013114;23;20481;-79
2024/03/23 20:27:18;;;;;;;2.70;1.43;;;18.10;49.10;;;;;;4993266;28;20441;-79
2024/03/23 20:30:00;;;;;;;3.37;1.37;;;18.10;49.00;;;;;;4993122;28;20472;-78
2024/03/23 20:32:35;;;;;;;3.07;1.47;;;18.10;49.00;;;;;;4987439;28;20474;-79
2024/03/23 20:35:06;;;;;;;1.57;1.47;;;18.10;49.00;;;;;;4972394;28;21008;-79
2024/03/23 20:37:35;;;;;;;2.40;1.33;;;18.00;49.00;;;;;;4973721;28;20446;-77
2024/03/23 20:40:07;;;;;;;1.90;1.67;;;18.00;49.20;;;;;;4971176;28;20450;-79
2024/03/23 20:42:36;;;;;;;3.03;1.17;;;18.00;49.30;;;;;;4980106;28;20465;-79
2024/03/23 20:45:09;;;;;;;4.53;1.40;;;18.00;49.30;;;;;;4978941;28;20454;-79
2024/03/23 20:47:38;;;;;;;3.83;1.60;;;17.90;49.10;;;;;;4986101;28;20856;-79
2024/03/23 20:50:12;;;;;;;1.73;1.30;;;17.90;49.10;;;;;;4973256;28;20457;-79
2024/03/23 20:52:39;;;;;;;2.90;1.70;;;17.90;49.20;;;;;;4968170;28;20448;-79
2024/03/23 20:55:08;;;;;;;1.23;1.13;;;17.80;49.10;;;;;;4972579;28;20463;-79
2024/03/23 20:57:36;;;;;;;2.20;1.60;;;17.80;49.30;;;;;;4972845;28;20442;-79
2024/03/23 21:00:04;;;;;;;6.40;1.87;;;17.80;49.20;;;;;;4974435;28;20438;-79
2024/03/23 21:02:41;;;;;;;1.83;1.17;;;17.80;49.40;;;;;;4982799;28;20870;-79
2024/03/23 21:05:17;;;;;;;6.20;2.13;;;17.80;49.30;;;;;;4983183;28;20529;-79
2024/03/23 21:07:46;;;;;;;2.60;1.57;;;17.70;50.00;;;;;;4973282;28;20450;-78
2024/03/23 21:10:17;;;;;;;3.00;1.70;;;17.70;49.20;;;;;;4972432;28;20554;-77
2024/03/23 21:12:47;;;;;;;3.03;1.30;;;17.70;49.30;;;;;;4971166;28;20477;-78
2024/03/23 21:15:17;;;;;;;3.00;1.37;;;17.70;49.30;;;;;;4974979;28;20470;-79
2024/03/23 21:17:56;;;;;;;2.73;1.40;;;17.70;49.50;;;;;;4986302;28;20450;-79
2024/03/23 21:20:37;;;;;;;1.50;1.40;;;17.60;49.10;;;;;;4972205;28;20461;-78
2024/03/23 21:23:16;;;;;;;2.00;1.40;;;17.60;49.50;;;;;;4988349;28;20475;-78
2024/03/23 21:26:04;;;;;;;2.90;1.50;;;17.60;49.60;;;;;;4978246;28;20480;-79
2024/03/23 21:28:49;;;;;;;3.57;1.70;;;17.60;49.60;;;;;;4985549;28;20453;-79
2024/03/23 21:31:17;;;;;;;1.83;1.57;;;17.60;49.50;;;;;;4973821;28;20450;-80
2024/03/23 21:33:49;;;;;;;2.20;1.20;;;17.60;49.60;;;;;;4983145;28;20478;-78
2024/03/23 21:36:19;;;;;;;2.80;1.53;;;17.60;49.60;;;;;;4983427;28;20446;-79
2024/03/23 21:38:45;;;;;;;1.73;1.40;;;17.60;49.50;;;;;;4985753;28;20470;-79
2024/03/23 21:41:12;;;;;;;5.47;1.80;;;17.50;49.40;;;;;;4985186;28;20446;-80
2024/03/23 21:43:40;;;;;;;2.90;1.60;;;17.50;49.40;;;;;;4981516;28;20466;-80
2024/03/23 21:46:09;;;;;;;3.40;1.70;;;17.50;49.20;;;;;;4974693;28;20462;-81
2024/03/23 21:48:39;;;;;;;2.90;1.43;;;17.50;49.40;;;;;;4975172;28;20446;-80
2024/03/23 21:51:10;;;;;;;3.63;1.67;;;17.50;49.50;;;;;;4975950;28;20434;-79
2024/03/23 21:53:39;;;;;;;2.40;1.60;;;17.40;49.40;;;;;;4978926;28;20481;-80
2024/03/23 21:56:11;;;;;;;4.03;1.57;;;17.40;49.50;;;;;;4979387;28;20465;-80
2024/03/23 21:58:41;;;;;;;1.77;1.50;;;17.40;49.60;;;;;;4979673;28;20450;-80
2024/03/23 22:01:09;;;;;;;4.50;1.53;;;17.40;49.60;;;;;;4979347;28;20442;-80
2024/03/23 22:03:39;;;;;;;4.93;1.63;;;17.40;49.60;;;;;;4978277;28;20442;-81
2024/03/23 22:06:17;;;;;;;2.23;1.40;;;17.30;49.50;;;;;;4976841;28;20457;-79
2024/03/23 22:08:43;;;;;;;2.23;1.33;;;17.30;49.70;;;;;;4977758;28;20446;-81
2024/03/23 22:11:11;;;;;;;1.97;1.77;;;17.30;49.80;;;;;;4978408;28;20466;-81
2024/03/23 22:13:42;;;;;;;2.50;1.60;;;17.30;49.70;;;;;;4977372;28;20486;-80
2024/03/23 22:16:11;;;;;;;3.33;1.50;;;17.30;49.90;;;;;;4977756;28;20466;-80
2024/03/23 22:18:42;;;;;;;2.70;1.73;;;17.30;49.80;;;;;;4978533;28;20446;-80
2024/03/23 22:21:19;;;;;;;4.67;1.40;;;17.20;49.80;;;;;;4977014;28;20944;-80
2024/03/23 22:24:04;;;;;;;1.70;1.53;;;17.20;49.80;;;;;;4978149;28;20446;-80
2024/03/23 22:26:30;;;;;;;2.70;1.60;;;17.20;49.70;;;;;;4977935;28;20469;-80
2024/03/23 22:29:01;;;;;;;4.80;1.87;;;17.10;49.70;;;;;;4979024;28;20438;-82
2024/03/23 22:31:28;;;;;;;1.73;1.63;;;17.10;49.80;;;;;;4977438;28;20434;-80
2024/03/23 22:34:12;;;;;;;3.27;1.50;;;17.10;50.00;;;;;;4976998;28;20478;-78
2024/03/23 22:36:38;;;;;;;3.60;1.97;;;17.10;49.80;;;;;;4975899;28;20438;-79
2024/03/23 22:39:06;;;;;;;2.60;1.53;;;17.10;49.90;;;;;;4976541;28;20511;-80
2024/03/23 22:41:35;;;;;;;3.33;1.77;;;17.00;49.50;;;;;;4976666;28;20438;-78
2024/03/23 22:44:02;;;;;;;2.57;1.50;;;17.00;49.50;;;;;;4974404;28;20454;-80
2024/03/23 22:46:30;;;;;;;1.93;1.23;;;17.00;49.50;;;;;;4975958;28;20444;-79
2024/03/23 22:48:57;;;;;;;3.47;1.60;;;16.90;49.70;;;;;;4978105;28;20446;-79
2024/03/23 22:51:23;;;;;;;3.40;1.40;;;16.90;49.70;;;;;;4976047;28;20434;-79
2024/03/23 22:53:50;;;;;;;2.60;1.17;;;16.90;49.70;;;;;;4976694;28;20485;-79
2024/03/23 22:56:18;;;;;;;3.00;1.50;;;16.90;49.90;;;;;;4977595;28;20442;-79
2024/03/23 22:58:45;;;;;;;1.83;1.40;;;16.90;49.80;;;;;;4976712;28;20446;-79
2024/03/23 23:01:12;;;;;;;2.40;1.60;;;16.90;49.70;;;;;;4976207;28;20446;-78
2024/03/23 23:03:40;;;;;;;2.33;1.57;;;16.80;49.80;;;;;;4975196;28;20447;-79
2024/03/23 23:06:08;;;;;;;1.40;1.30;;;16.80;49.80;;;;;;4976415;28;20466;-80
2024/03/23 23:08:38;;;;;;;1.57;1.43;;;16.80;49.80;;;;;;4976102;28;20442;-78
2024/03/23 23:11:06;;;;;;;1.50;1.40;;;16.80;49.90;;;;;;4975681;28;20450;-78
2024/03/23 23:13:32;;;;;;;1.50;1.40;;;16.80;50.00;;;;;;4975835;28;20478;-78
2024/03/23 23:16:00;;;;;;;2.93;1.53;;;16.80;50.00;;;;;;4975977;28;20458;-78
2024/03/23 23:18:26;;;;;;;2.60;1.67;;;16.80;49.80;;;;;;4976066;28;20478;-79
2024/03/23 23:20:54;;;;;;;1.63;1.40;;;16.70;49.80;;;;;;4976597;28;20442;-80
2024/03/23 23:23:22;;;;;;;2.80;1.40;;;16.70;49.90;;;;;;4976836;28;20459;-80
2024/03/23 23:25:49;;;;;;;3.33;1.70;;;16.70;50.00;;;;;;4975459;28;20466;-79
2024/03/23 23:28:16;;;;;;;2.60;1.50;;;16.70;49.80;;;;;;4975300;28;20446;-78
2024/03/23 23:30:43;;;;;;;2.20;1.40;;;16.70;49.90;;;;;;4974701;28;20558;-78
2024/03/23 23:33:09;;;;;;;2.10;1.50;;;16.70;49.60;;;;;;4974323;28;20479;-78
2024/03/23 23:35:36;;;;;;;1.80;1.43;;;16.70;49.90;;;;;;4974195;28;20459;-79
2024/03/23 23:38:04;;;;;;;1.90;1.70;;;16.70;49.80;;;;;;4974301;28;20443;-78
2024/03/23 23:40:32;;;;;;;3.37;1.77;;;16.60;49.70;;;;;;4974306;28;20450;-78
2024/03/23 23:43:05;;;;;;;1.87;1.63;;;16.60;49.70;;;;;;4974479;28;20442;-79
2024/03/23 23:45:33;;;;;;;1.50;1.40;;;16.60;49.70;;;;;;4973278;28;20478;-78
2024/03/23 23:47:59;;;;;;;4.03;1.50;;;16.60;49.70;;;;;;4974432;28;20450;-83
2024/03/23 23:50:26;;;;;;;2.60;1.63;;;16.60;49.80;;;;;;4975485;28;20506;-79
2024/03/23 23:52:52;;;;;;;1.93;1.70;;;16.60;49.70;;;;;;4975203;28;20969;-79
2024/03/23 23:55:20;;;;;;;1.73;1.63;;;16.60;49.70;;;;;;4974061;28;20547;-78
2024/03/23 23:57:46;;;;;;;2.17;1.43;;;16.50;49.60;;;;;;4974097;28;20446;-78
